sensor_id;sensor_type;location;lat;lon;timestamp;P1;durP1;ratioP1;P2;durP2;ratioP2
18732;SDS011;9495;51.210;2.934;2022-12-18T00:00:06;143.60;;;61.07;;
18732;SDS011;9495;51.210;2.934;2022-12-18T00:02:35;157.83;;;68.00;;
18732;SDS011;9495;51.210;2.934;2022-12-18T00:05:04;161.17;;;67.67;;
18732;SDS011;9495;51.210;2.934;2022-12-18T00:07:34;165.33;;;70.63;;
18732;SDS011;9495;51.210;2.934;2022-12-18T00:10:03;166.33;;;69.20;;
18732;SDS011;9495;51.210;2.934;2022-12-18T00:12:32;162.57;;;69.57;;
18732;SDS011;9495;51.210;2.934;2022-12-18T00:15:01;156.87;;;68.87;;
18732;SDS011;9495;51.210;2.934;2022-12-18T00:17:30;160.70;;;66.97;;
18732;SDS011;9495;51.210;2.934;2022-12-18T00:19:58;155.30;;;67.40;;
18732;SDS011;9495;51.210;2.934;2022-12-18T00:22:27;155.53;;;64.97;;
18732;SDS011;9495;51.210;2.934;2022-12-18T00:24:57;157.93;;;64.43;;
18732;SDS011;9495;51.210;2.934;2022-12-18T00:27:25;148.37;;;63.57;;
18732;SDS011;9495;51.210;2.934;2022-12-18T00:29:53;153.93;;;60.93;;
18732;SDS011;9495;51.210;2.934;2022-12-18T00:32:22;146.77;;;61.70;;
18732;SDS011;9495;51.210;2.934;2022-12-18T00:34:50;152.23;;;62.73;;
18732;SDS011;9495;51.210;2.934;2022-12-18T00:37:20;147.97;;;62.93;;
18732;SDS011;9495;51.210;2.934;2022-12-18T00:39:49;156.03;;;63.70;;
18732;SDS011;9495;51.210;2.934;2022-12-18T00:42:19;152.37;;;62.50;;
18732;SDS011;9495;51.210;2.934;2022-12-18T00:45:05;148.37;;;65.40;;
18732;SDS011;9495;51.210;2.934;2022-12-18T00:47:38;155.40;;;64.17;;
18732;SDS011;9495;51.210;2.934;2022-12-18T00:50:08;156.90;;;64.27;;
18732;SDS011;9495;51.210;2.934;2022-12-18T00:52:37;163.93;;;66.73;;
18732;SDS011;9495;51.210;2.934;2022-12-18T00:55:05;153.27;;;65.57;;
18732;SDS011;9495;51.210;2.934;2022-12-18T00:57:35;153.00;;;66.17;;
18732;SDS011;9495;51.210;2.934;2022-12-18T01:00:06;149.70;;;62.20;;
18732;SDS011;9495;51.210;2.934;2022-12-18T01:02:37;158.87;;;65.93;;
18732;SDS011;9495;51.210;2.934;2022-12-18T01:05:06;160.30;;;66.83;;
18732;SDS011;9495;51.210;2.934;2022-12-18T01:07:36;147.53;;;60.13;;
18732;SDS011;9495;51.210;2.934;2022-12-18T01:10:05;163.07;;;62.17;;
18732;SDS011;9495;51.210;2.934;2022-12-18T01:12:35;142.03;;;53.10;;
18732;SDS011;9495;51.210;2.934;2022-12-18T01:15:04;159.50;;;65.23;;
18732;SDS011;9495;51.210;2.934;2022-12-18T01:17:34;161.20;;;63.63;;
18732;SDS011;9495;51.210;2.934;2022-12-18T01:20:02;157.87;;;67.27;;
18732;SDS011;9495;51.210;2.934;2022-12-18T01:22:31;167.00;;;66.53;;
18732;SDS011;9495;51.210;2.934;2022-12-18T01:25:00;159.37;;;64.37;;
18732;SDS011;9495;51.210;2.934;2022-12-18T01:27:30;158.27;;;66.03;;
18732;SDS011;9495;51.210;2.934;2022-12-18T01:30:00;151.57;;;63.97;;
18732;SDS011;9495;51.210;2.934;2022-12-18T01:32:29;152.20;;;66.20;;
18732;SDS011;9495;51.210;2.934;2022-12-18T01:34:57;159.40;;;66.63;;
18732;SDS011;9495;51.210;2.934;2022-12-18T01:37:26;155.00;;;64.07;;
18732;SDS011;9495;51.210;2.934;2022-12-18T01:39:54;150.97;;;64.17;;
18732;SDS011;9495;51.210;2.934;2022-12-18T01:42:23;151.17;;;63.83;;
18732;SDS011;9495;51.210;2.934;2022-12-18T01:45:01;143.53;;;61.17;;
18732;SDS011;9495;51.210;2.934;2022-12-18T01:47:35;141.77;;;61.87;;
18732;SDS011;9495;51.210;2.934;2022-12-18T01:50:07;144.93;;;65.13;;
18732;SDS011;9495;51.210;2.934;2022-12-18T01:52:39;148.17;;;64.27;;
18732;SDS011;9495;51.210;2.934;2022-12-18T01:55:10;145.77;;;64.90;;
18732;SDS011;9495;51.210;2.934;2022-12-18T01:57:39;147.90;;;63.33;;
18732;SDS011;9495;51.210;2.934;2022-12-18T02:00:12;146.63;;;65.60;;
18732;SDS011;9495;51.210;2.934;2022-12-18T02:02:43;142.27;;;60.57;;
18732;SDS011;9495;51.210;2.934;2022-12-18T02:05:13;141.90;;;61.33;;
18732;SDS011;9495;51.210;2.934;2022-12-18T02:07:45;140.93;;;61.20;;
18732;SDS011;9495;51.210;2.934;2022-12-18T02:10:23;136.90;;;61.93;;
18732;SDS011;9495;51.210;2.934;2022-12-18T02:12:56;135.83;;;63.97;;
18732;SDS011;9495;51.210;2.934;2022-12-18T02:15:32;139.13;;;61.63;;
18732;SDS011;9495;51.210;2.934;2022-12-18T02:18:07;131.40;;;58.63;;
18732;SDS011;9495;51.210;2.934;2022-12-18T02:20:40;140.03;;;62.23;;
18732;SDS011;9495;51.210;2.934;2022-12-18T02:23:15;140.50;;;61.23;;
18732;SDS011;9495;51.210;2.934;2022-12-18T02:26:00;128.63;;;60.83;;
18732;SDS011;9495;51.210;2.934;2022-12-18T02:28:35;135.67;;;61.30;;
18732;SDS011;9495;51.210;2.934;2022-12-18T02:31:09;131.70;;;61.60;;
18732;SDS011;9495;51.210;2.934;2022-12-18T02:33:42;136.27;;;61.43;;
18732;SDS011;9495;51.210;2.934;2022-12-18T02:36:12;136.13;;;62.00;;
18732;SDS011;9495;51.210;2.934;2022-12-18T02:38:43;139.40;;;61.77;;
18732;SDS011;9495;51.210;2.934;2022-12-18T02:41:14;137.90;;;62.63;;
18732;SDS011;9495;51.210;2.934;2022-12-18T02:43:48;138.70;;;62.30;;
18732;SDS011;9495;51.210;2.934;2022-12-18T02:46:23;128.47;;;58.90;;
18732;SDS011;9495;51.210;2.934;2022-12-18T02:48:57;123.93;;;59.07;;
18732;SDS011;9495;51.210;2.934;2022-12-18T02:51:36;125.30;;;58.17;;
18732;SDS011;9495;51.210;2.934;2022-12-18T02:54:15;121.17;;;57.73;;
18732;SDS011;9495;51.210;2.934;2022-12-18T02:57:11;127.50;;;57.67;;
18732;SDS011;9495;51.210;2.934;2022-12-18T02:59:48;119.13;;;56.03;;
18732;SDS011;9495;51.210;2.934;2022-12-18T03:02:24;123.77;;;57.00;;
18732;SDS011;9495;51.210;2.934;2022-12-18T03:04:59;118.53;;;55.23;;
18732;SDS011;9495;51.210;2.934;2022-12-18T03:07:34;127.53;;;58.00;;
18732;SDS011;9495;51.210;2.934;2022-12-18T03:10:06;119.17;;;56.87;;
18732;SDS011;9495;51.210;2.934;2022-12-18T03:12:40;120.83;;;58.07;;
18732;SDS011;9495;51.210;2.934;2022-12-18T03:15:13;114.37;;;54.63;;
18732;SDS011;9495;51.210;2.934;2022-12-18T03:17:46;118.23;;;54.27;;
18732;SDS011;9495;51.210;2.934;2022-12-18T03:20:19;119.43;;;56.90;;
18732;SDS011;9495;51.210;2.934;2022-12-18T03:22:50;112.13;;;56.53;;
18732;SDS011;9495;51.210;2.934;2022-12-18T03:25:23;112.10;;;57.23;;
18732;SDS011;9495;51.210;2.934;2022-12-18T03:27:56;121.67;;;58.07;;
18732;SDS011;9495;51.210;2.934;2022-12-18T03:30:28;113.00;;;55.53;;
18732;SDS011;9495;51.210;2.934;2022-12-18T03:33:00;116.53;;;57.03;;
18732;SDS011;9495;51.210;2.934;2022-12-18T03:35:33;118.67;;;54.57;;
18732;SDS011;9495;51.210;2.934;2022-12-18T03:38:05;111.10;;;55.30;;
18732;SDS011;9495;51.210;2.934;2022-12-18T03:40:35;112.17;;;57.00;;
18732;SDS011;9495;51.210;2.934;2022-12-18T03:43:13;114.70;;;56.77;;
18732;SDS011;9495;51.210;2.934;2022-12-18T03:45:49;111.87;;;56.40;;
18732;SDS011;9495;51.210;2.934;2022-12-18T03:48:25;110.57;;;56.33;;
18732;SDS011;9495;51.210;2.934;2022-12-18T03:50:59;116.00;;;56.53;;
18732;SDS011;9495;51.210;2.934;2022-12-18T03:53:35;109.20;;;56.73;;
18732;SDS011;9495;51.210;2.934;2022-12-18T03:56:07;110.70;;;57.50;;
18732;SDS011;9495;51.210;2.934;2022-12-18T03:58:39;109.23;;;56.70;;
18732;SDS011;9495;51.210;2.934;2022-12-18T04:01:10;112.77;;;58.63;;
18732;SDS011;9495;51.210;2.934;2022-12-18T04:03:43;116.30;;;57.90;;
18732;SDS011;9495;51.210;2.934;2022-12-18T04:06:14;113.47;;;57.53;;
18732;SDS011;9495;51.210;2.934;2022-12-18T04:08:43;114.57;;;58.10;;
18732;SDS011;9495;51.210;2.934;2022-12-18T04:11:13;116.60;;;59.77;;
18732;SDS011;9495;51.210;2.934;2022-12-18T04:13:43;111.67;;;57.87;;
18732;SDS011;9495;51.210;2.934;2022-12-18T04:16:12;114.77;;;59.10;;
18732;SDS011;9495;51.210;2.934;2022-12-18T04:18:40;110.83;;;56.93;;
18732;SDS011;9495;51.210;2.934;2022-12-18T04:21:09;109.30;;;57.83;;
18732;SDS011;9495;51.210;2.934;2022-12-18T04:23:38;115.13;;;58.67;;
18732;SDS011;9495;51.210;2.934;2022-12-18T04:26:07;112.43;;;57.57;;
18732;SDS011;9495;51.210;2.934;2022-12-18T04:28:35;108.83;;;57.17;;
18732;SDS011;9495;51.210;2.934;2022-12-18T04:31:05;100.27;;;54.53;;
18732;SDS011;9495;51.210;2.934;2022-12-18T04:33:34;99.13;;;53.47;;
18732;SDS011;9495;51.210;2.934;2022-12-18T04:36:03;95.57;;;52.20;;
18732;SDS011;9495;51.210;2.934;2022-12-18T04:38:32;91.33;;;51.50;;
18732;SDS011;9495;51.210;2.934;2022-12-18T04:41:01;89.63;;;49.97;;
18732;SDS011;9495;51.210;2.934;2022-12-18T04:43:29;90.67;;;49.40;;
18732;SDS011;9495;51.210;2.934;2022-12-18T04:46:02;86.63;;;48.40;;
18732;SDS011;9495;51.210;2.934;2022-12-18T04:48:33;85.43;;;48.23;;
18732;SDS011;9495;51.210;2.934;2022-12-18T04:51:03;88.63;;;46.80;;
18732;SDS011;9495;51.210;2.934;2022-12-18T04:53:31;84.30;;;47.40;;
18732;SDS011;9495;51.210;2.934;2022-12-18T04:56:04;84.53;;;45.20;;
18732;SDS011;9495;51.210;2.934;2022-12-18T04:58:34;87.50;;;46.73;;
18732;SDS011;9495;51.210;2.934;2022-12-18T05:01:03;85.53;;;46.20;;
18732;SDS011;9495;51.210;2.934;2022-12-18T05:03:33;86.30;;;47.40;;
18732;SDS011;9495;51.210;2.934;2022-12-18T05:06:02;87.00;;;48.83;;
18732;SDS011;9495;51.210;2.934;2022-12-18T05:08:31;88.50;;;48.17;;
18732;SDS011;9495;51.210;2.934;2022-12-18T05:11:00;85.53;;;47.30;;
18732;SDS011;9495;51.210;2.934;2022-12-18T05:13:31;83.50;;;45.87;;
18732;SDS011;9495;51.210;2.934;2022-12-18T05:16:00;84.53;;;47.87;;
18732;SDS011;9495;51.210;2.934;2022-12-18T05:18:28;80.30;;;46.50;;
18732;SDS011;9495;51.210;2.934;2022-12-18T05:20:58;85.93;;;46.50;;
18732;SDS011;9495;51.210;2.934;2022-12-18T05:23:27;83.37;;;46.67;;
18732;SDS011;9495;51.210;2.934;2022-12-18T05:25:56;81.10;;;48.67;;
18732;SDS011;9495;51.210;2.934;2022-12-18T05:28:26;84.90;;;46.67;;
18732;SDS011;9495;51.210;2.934;2022-12-18T05:30:56;83.70;;;47.37;;
18732;SDS011;9495;51.210;2.934;2022-12-18T05:33:28;81.70;;;47.07;;
18732;SDS011;9495;51.210;2.934;2022-12-18T05:36:00;82.67;;;47.80;;
18732;SDS011;9495;51.210;2.934;2022-12-18T05:38:29;85.67;;;45.13;;
18732;SDS011;9495;51.210;2.934;2022-12-18T05:40:59;83.33;;;47.80;;
18732;SDS011;9495;51.210;2.934;2022-12-18T05:43:27;84.53;;;47.70;;
18732;SDS011;9495;51.210;2.934;2022-12-18T05:45:57;86.10;;;48.17;;
18732;SDS011;9495;51.210;2.934;2022-12-18T05:48:30;76.07;;;45.17;;
18732;SDS011;9495;51.210;2.934;2022-12-18T05:51:04;80.77;;;46.80;;
18732;SDS011;9495;51.210;2.934;2022-12-18T05:53:34;83.57;;;47.07;;
18732;SDS011;9495;51.210;2.934;2022-12-18T05:56:05;83.77;;;46.60;;
18732;SDS011;9495;51.210;2.934;2022-12-18T05:58:35;79.63;;;45.97;;
18732;SDS011;9495;51.210;2.934;2022-12-18T06:01:07;77.93;;;45.80;;
18732;SDS011;9495;51.210;2.934;2022-12-18T06:03:37;82.37;;;46.40;;
18732;SDS011;9495;51.210;2.934;2022-12-18T06:06:13;77.90;;;45.77;;
18732;SDS011;9495;51.210;2.934;2022-12-18T06:08:43;81.33;;;45.63;;
18732;SDS011;9495;51.210;2.934;2022-12-18T06:11:12;86.03;;;48.53;;
18732;SDS011;9495;51.210;2.934;2022-12-18T06:13:43;80.00;;;47.00;;
18732;SDS011;9495;51.210;2.934;2022-12-18T06:16:11;85.70;;;48.20;;
18732;SDS011;9495;51.210;2.934;2022-12-18T06:18:40;85.43;;;47.77;;
18732;SDS011;9495;51.210;2.934;2022-12-18T06:21:08;84.23;;;48.27;;
18732;SDS011;9495;51.210;2.934;2022-12-18T06:23:38;83.13;;;48.47;;
18732;SDS011;9495;51.210;2.934;2022-12-18T06:26:08;78.10;;;46.40;;
18732;SDS011;9495;51.210;2.934;2022-12-18T06:28:38;85.23;;;46.07;;
18732;SDS011;9495;51.210;2.934;2022-12-18T06:31:07;75.10;;;44.53;;
18732;SDS011;9495;51.210;2.934;2022-12-18T06:33:36;74.77;;;45.50;;
18732;SDS011;9495;51.210;2.934;2022-12-18T06:36:06;69.27;;;41.23;;
18732;SDS011;9495;51.210;2.934;2022-12-18T06:38:37;70.13;;;42.03;;
18732;SDS011;9495;51.210;2.934;2022-12-18T06:41:08;62.40;;;38.57;;
18732;SDS011;9495;51.210;2.934;2022-12-18T06:43:37;65.27;;;38.90;;
18732;SDS011;9495;51.210;2.934;2022-12-18T06:46:06;63.93;;;38.50;;
18732;SDS011;9495;51.210;2.934;2022-12-18T06:48:35;58.77;;;35.40;;
18732;SDS011;9495;51.210;2.934;2022-12-18T06:51:03;63.87;;;35.37;;
18732;SDS011;9495;51.210;2.934;2022-12-18T06:53:32;59.43;;;34.93;;
18732;SDS011;9495;51.210;2.934;2022-12-18T06:56:03;57.80;;;34.30;;
18732;SDS011;9495;51.210;2.934;2022-12-18T06:58:36;53.73;;;33.47;;
18732;SDS011;9495;51.210;2.934;2022-12-18T07:01:05;56.27;;;32.17;;
18732;SDS011;9495;51.210;2.934;2022-12-18T07:03:35;53.27;;;32.77;;
18732;SDS011;9495;51.210;2.934;2022-12-18T07:06:04;48.93;;;29.83;;
18732;SDS011;9495;51.210;2.934;2022-12-18T07:08:33;52.87;;;30.73;;
18732;SDS011;9495;51.210;2.934;2022-12-18T07:11:04;51.43;;;30.77;;
18732;SDS011;9495;51.210;2.934;2022-12-18T07:13:33;53.60;;;32.23;;
18732;SDS011;9495;51.210;2.934;2022-12-18T07:16:05;53.13;;;33.23;;
18732;SDS011;9495;51.210;2.934;2022-12-18T07:18:44;52.93;;;31.63;;
18732;SDS011;9495;51.210;2.934;2022-12-18T07:21:13;51.90;;;31.47;;
18732;SDS011;9495;51.210;2.934;2022-12-18T07:23:42;53.03;;;31.63;;
18732;SDS011;9495;51.210;2.934;2022-12-18T07:26:16;53.47;;;31.80;;
18732;SDS011;9495;51.210;2.934;2022-12-18T07:28:46;53.73;;;34.17;;
18732;SDS011;9495;51.210;2.934;2022-12-18T07:31:15;54.37;;;33.57;;
18732;SDS011;9495;51.210;2.934;2022-12-18T07:33:44;55.43;;;33.03;;
18732;SDS011;9495;51.210;2.934;2022-12-18T07:36:13;53.80;;;30.77;;
18732;SDS011;9495;51.210;2.934;2022-12-18T07:38:42;49.73;;;30.37;;
18732;SDS011;9495;51.210;2.934;2022-12-18T07:41:11;50.50;;;30.40;;
18732;SDS011;9495;51.210;2.934;2022-12-18T07:43:42;49.50;;;31.47;;
18732;SDS011;9495;51.210;2.934;2022-12-18T07:46:10;47.83;;;30.23;;
18732;SDS011;9495;51.210;2.934;2022-12-18T07:48:41;49.87;;;29.27;;
18732;SDS011;9495;51.210;2.934;2022-12-18T07:51:15;51.23;;;30.90;;
18732;SDS011;9495;51.210;2.934;2022-12-18T07:53:45;46.20;;;29.83;;
18732;SDS011;9495;51.210;2.934;2022-12-18T07:56:18;52.50;;;29.17;;
18732;SDS011;9495;51.210;2.934;2022-12-18T07:58:55;46.80;;;29.70;;
18732;SDS011;9495;51.210;2.934;2022-12-18T08:01:23;49.83;;;27.73;;
18732;SDS011;9495;51.210;2.934;2022-12-18T08:03:52;45.03;;;27.57;;
18732;SDS011;9495;51.210;2.934;2022-12-18T08:06:20;48.03;;;28.80;;
18732;SDS011;9495;51.210;2.934;2022-12-18T08:08:50;44.37;;;28.17;;
18732;SDS011;9495;51.210;2.934;2022-12-18T08:11:19;47.30;;;28.30;;
18732;SDS011;9495;51.210;2.934;2022-12-18T08:13:48;40.77;;;26.87;;
18732;SDS011;9495;51.210;2.934;2022-12-18T08:16:18;39.60;;;24.90;;
18732;SDS011;9495;51.210;2.934;2022-12-18T08:18:48;41.97;;;25.07;;
18732;SDS011;9495;51.210;2.934;2022-12-18T08:21:18;38.47;;;23.20;;
18732;SDS011;9495;51.210;2.934;2022-12-18T08:23:49;40.83;;;24.50;;
18732;SDS011;9495;51.210;2.934;2022-12-18T08:26:18;39.40;;;22.07;;
18732;SDS011;9495;51.210;2.934;2022-12-18T08:28:47;37.13;;;24.00;;
18732;SDS011;9495;51.210;2.934;2022-12-18T08:31:18;36.87;;;22.03;;
18732;SDS011;9495;51.210;2.934;2022-12-18T08:33:49;35.83;;;21.97;;
18732;SDS011;9495;51.210;2.934;2022-12-18T08:36:17;37.00;;;21.73;;
18732;SDS011;9495;51.210;2.934;2022-12-18T08:38:46;43.67;;;27.47;;
18732;SDS011;9495;51.210;2.934;2022-12-18T08:41:15;41.57;;;23.77;;
18732;SDS011;9495;51.210;2.934;2022-12-18T08:43:44;38.63;;;24.47;;
18732;SDS011;9495;51.210;2.934;2022-12-18T08:46:35;41.20;;;24.87;;
18732;SDS011;9495;51.210;2.934;2022-12-18T08:49:06;38.93;;;24.43;;
18732;SDS011;9495;51.210;2.934;2022-12-18T08:51:35;37.67;;;23.67;;
18732;SDS011;9495;51.210;2.934;2022-12-18T08:54:03;42.37;;;25.47;;
18732;SDS011;9495;51.210;2.934;2022-12-18T08:56:32;43.07;;;28.17;;
18732;SDS011;9495;51.210;2.934;2022-12-18T08:59:01;44.20;;;26.30;;
18732;SDS011;9495;51.210;2.934;2022-12-18T09:01:30;41.70;;;26.87;;
18732;SDS011;9495;51.210;2.934;2022-12-18T09:04:02;42.20;;;24.43;;
18732;SDS011;9495;51.210;2.934;2022-12-18T09:06:33;38.20;;;26.40;;
18732;SDS011;9495;51.210;2.934;2022-12-18T09:09:03;32.87;;;23.13;;
18732;SDS011;9495;51.210;2.934;2022-12-18T09:11:32;38.20;;;24.37;;
18732;SDS011;9495;51.210;2.934;2022-12-18T09:14:01;39.43;;;23.90;;
18732;SDS011;9495;51.210;2.934;2022-12-18T09:16:30;36.40;;;23.13;;
18732;SDS011;9495;51.210;2.934;2022-12-18T09:19:03;39.13;;;24.37;;
18732;SDS011;9495;51.210;2.934;2022-12-18T09:21:32;38.80;;;22.97;;
18732;SDS011;9495;51.210;2.934;2022-12-18T09:24:13;37.77;;;24.17;;
18732;SDS011;9495;51.210;2.934;2022-12-18T09:26:42;38.10;;;23.60;;
18732;SDS011;9495;51.210;2.934;2022-12-18T09:29:13;35.73;;;22.53;;
18732;SDS011;9495;51.210;2.934;2022-12-18T09:31:44;34.43;;;19.67;;
18732;SDS011;9495;51.210;2.934;2022-12-18T09:34:14;37.40;;;22.67;;
18732;SDS011;9495;51.210;2.934;2022-12-18T09:36:42;40.43;;;24.27;;
18732;SDS011;9495;51.210;2.934;2022-12-18T09:39:12;35.27;;;21.23;;
18732;SDS011;9495;51.210;2.934;2022-12-18T09:41:44;34.27;;;22.20;;
18732;SDS011;9495;51.210;2.934;2022-12-18T09:44:18;34.43;;;21.80;;
18732;SDS011;9495;51.210;2.934;2022-12-18T09:46:52;35.03;;;22.27;;
18732;SDS011;9495;51.210;2.934;2022-12-18T09:49:28;36.73;;;22.40;;
18732;SDS011;9495;51.210;2.934;2022-12-18T09:52:00;38.43;;;22.00;;
18732;SDS011;9495;51.210;2.934;2022-12-18T09:54:32;37.07;;;22.80;;
18732;SDS011;9495;51.210;2.934;2022-12-18T09:57:04;36.40;;;20.03;;
18732;SDS011;9495;51.210;2.934;2022-12-18T09:59:33;27.37;;;14.30;;
18732;SDS011;9495;51.210;2.934;2022-12-18T10:02:14;37.67;;;21.93;;
18732;SDS011;9495;51.210;2.934;2022-12-18T10:04:46;28.83;;;16.73;;
18732;SDS011;9495;51.210;2.934;2022-12-18T10:07:22;35.40;;;17.53;;
18732;SDS011;9495;51.210;2.934;2022-12-18T10:09:58;33.43;;;19.97;;
18732;SDS011;9495;51.210;2.934;2022-12-18T10:12:32;30.90;;;20.40;;
18732;SDS011;9495;51.210;2.934;2022-12-18T10:15:10;34.93;;;21.00;;
18732;SDS011;9495;51.210;2.934;2022-12-18T10:17:49;32.50;;;21.70;;
18732;SDS011;9495;51.210;2.934;2022-12-18T10:20:29;24.60;;;13.80;;
18732;SDS011;9495;51.210;2.934;2022-12-18T10:23:01;34.43;;;21.10;;
18732;SDS011;9495;51.210;2.934;2022-12-18T10:25:37;34.87;;;22.17;;
18732;SDS011;9495;51.210;2.934;2022-12-18T10:28:15;35.37;;;22.33;;
18732;SDS011;9495;51.210;2.934;2022-12-18T10:30:44;38.40;;;19.77;;
18732;SDS011;9495;51.210;2.934;2022-12-18T10:33:13;33.00;;;19.27;;
18732;SDS011;9495;51.210;2.934;2022-12-18T10:35:45;33.10;;;20.83;;
18732;SDS011;9495;51.210;2.934;2022-12-18T10:38:22;31.13;;;18.30;;
18732;SDS011;9495;51.210;2.934;2022-12-18T10:40:53;30.60;;;17.90;;
18732;SDS011;9495;51.210;2.934;2022-12-18T10:43:24;37.47;;;23.83;;
18732;SDS011;9495;51.210;2.934;2022-12-18T10:45:58;39.57;;;23.33;;
18732;SDS011;9495;51.210;2.934;2022-12-18T10:48:27;39.60;;;23.73;;
18732;SDS011;9495;51.210;2.934;2022-12-18T10:50:58;37.47;;;23.50;;
18732;SDS011;9495;51.210;2.934;2022-12-18T10:53:38;38.60;;;22.93;;
18732;SDS011;9495;51.210;2.934;2022-12-18T10:56:09;39.50;;;24.10;;
18732;SDS011;9495;51.210;2.934;2022-12-18T10:58:38;37.50;;;23.43;;
18732;SDS011;9495;51.210;2.934;2022-12-18T11:01:08;36.60;;;22.63;;
18732;SDS011;9495;51.210;2.934;2022-12-18T11:03:39;32.47;;;20.13;;
18732;SDS011;9495;51.210;2.934;2022-12-18T11:06:11;34.80;;;21.17;;
18732;SDS011;9495;51.210;2.934;2022-12-18T11:08:41;37.17;;;23.47;;
18732;SDS011;9495;51.210;2.934;2022-12-18T11:11:19;36.23;;;23.30;;
18732;SDS011;9495;51.210;2.934;2022-12-18T11:13:51;37.33;;;23.07;;
18732;SDS011;9495;51.210;2.934;2022-12-18T11:16:29;38.00;;;22.63;;
18732;SDS011;9495;51.210;2.934;2022-12-18T11:22:02;36.03;;;24.20;;
18732;SDS011;9495;51.210;2.934;2022-12-18T11:24:50;33.73;;;18.40;;
18732;SDS011;9495;51.210;2.934;2022-12-18T11:27:41;38.57;;;25.30;;
18732;SDS011;9495;51.210;2.934;2022-12-18T11:30:20;40.27;;;23.97;;
18732;SDS011;9495;51.210;2.934;2022-12-18T11:32:50;40.07;;;24.93;;
18732;SDS011;9495;51.210;2.934;2022-12-18T11:35:23;39.60;;;26.37;;
18732;SDS011;9495;51.210;2.934;2022-12-18T11:38:02;41.73;;;26.13;;
18732;SDS011;9495;51.210;2.934;2022-12-18T11:40:38;41.20;;;26.50;;
18732;SDS011;9495;51.210;2.934;2022-12-18T11:43:10;42.40;;;27.43;;
18732;SDS011;9495;51.210;2.934;2022-12-18T11:45:45;39.83;;;27.07;;
18732;SDS011;9495;51.210;2.934;2022-12-18T11:48:18;42.17;;;24.43;;
18732;SDS011;9495;51.210;2.934;2022-12-18T11:50:51;42.73;;;28.07;;
18732;SDS011;9495;51.210;2.934;2022-12-18T11:53:22;44.13;;;28.53;;
18732;SDS011;9495;51.210;2.934;2022-12-18T11:56:03;30.60;;;14.10;;
18732;SDS011;9495;51.210;2.934;2022-12-18T11:58:47;43.60;;;27.80;;
18732;SDS011;9495;51.210;2.934;2022-12-18T12:01:24;44.60;;;29.87;;
18732;SDS011;9495;51.210;2.934;2022-12-18T12:07:03;45.73;;;26.20;;
18732;SDS011;9495;51.210;2.934;2022-12-18T12:09:40;51.10;;;32.33;;
18732;SDS011;9495;51.210;2.934;2022-12-18T12:12:20;46.90;;;31.03;;
18732;SDS011;9495;51.210;2.934;2022-12-18T12:15:17;44.77;;;31.37;;
18732;SDS011;9495;51.210;2.934;2022-12-18T12:17:55;49.03;;;31.27;;
18732;SDS011;9495;51.210;2.934;2022-12-18T12:20:40;43.37;;;24.77;;
18732;SDS011;9495;51.210;2.934;2022-12-18T12:23:15;47.57;;;30.53;;
18732;SDS011;9495;51.210;2.934;2022-12-18T12:25:55;50.97;;;31.53;;
18732;SDS011;9495;51.210;2.934;2022-12-18T12:28:40;50.30;;;31.33;;
18732;SDS011;9495;51.210;2.934;2022-12-18T12:31:22;52.73;;;31.37;;
18732;SDS011;9495;51.210;2.934;2022-12-18T12:34:00;46.93;;;30.10;;
18732;SDS011;9495;51.210;2.934;2022-12-18T12:36:37;50.50;;;30.37;;
18732;SDS011;9495;51.210;2.934;2022-12-18T12:39:13;47.67;;;30.40;;
18732;SDS011;9495;51.210;2.934;2022-12-18T12:41:46;50.87;;;33.00;;
18732;SDS011;9495;51.210;2.934;2022-12-18T12:44:43;49.13;;;30.90;;
18732;SDS011;9495;51.210;2.934;2022-12-18T12:47:22;51.20;;;31.20;;
18732;SDS011;9495;51.210;2.934;2022-12-18T12:49:55;48.80;;;28.10;;
18732;SDS011;9495;51.210;2.934;2022-12-18T12:52:27;49.97;;;33.20;;
18732;SDS011;9495;51.210;2.934;2022-12-18T12:54:58;50.83;;;31.63;;
18732;SDS011;9495;51.210;2.934;2022-12-18T12:57:33;44.33;;;29.80;;
18732;SDS011;9495;51.210;2.934;2022-12-18T13:00:06;50.20;;;30.00;;
18732;SDS011;9495;51.210;2.934;2022-12-18T13:02:42;58.43;;;32.80;;
18732;SDS011;9495;51.210;2.934;2022-12-18T13:05:17;53.83;;;31.17;;
18732;SDS011;9495;51.210;2.934;2022-12-18T13:07:52;57.57;;;33.90;;
18732;SDS011;9495;51.210;2.934;2022-12-18T13:10:26;54.70;;;33.97;;
18732;SDS011;9495;51.210;2.934;2022-12-18T13:13:01;53.53;;;31.73;;
18732;SDS011;9495;51.210;2.934;2022-12-18T13:15:33;50.33;;;31.00;;
18732;SDS011;9495;51.210;2.934;2022-12-18T13:18:13;54.23;;;32.67;;
18732;SDS011;9495;51.210;2.934;2022-12-18T13:20:44;52.97;;;28.03;;
18732;SDS011;9495;51.210;2.934;2022-12-18T13:23:27;51.27;;;29.07;;
18732;SDS011;9495;51.210;2.934;2022-12-18T13:28:59;53.13;;;32.07;;
18732;SDS011;9495;51.210;2.934;2022-12-18T13:34:28;53.43;;;30.60;;
18732;SDS011;9495;51.210;2.934;2022-12-18T13:43:24;49.67;;;29.00;;
18732;SDS011;9495;51.210;2.934;2022-12-18T13:46:02;49.77;;;29.00;;
18732;SDS011;9495;51.210;2.934;2022-12-18T13:48:49;45.30;;;25.57;;
18732;SDS011;9495;51.210;2.934;2022-12-18T13:51:26;48.57;;;28.40;;
18732;SDS011;9495;51.210;2.934;2022-12-18T13:53:58;49.88;;;34.72;;
18732;SDS011;9495;51.210;2.934;2022-12-18T13:56:28;49.53;;;30.23;;
18732;SDS011;9495;51.210;2.934;2022-12-18T13:59:15;45.40;;;30.73;;
18732;SDS011;9495;51.210;2.934;2022-12-18T14:01:50;49.43;;;31.07;;
18732;SDS011;9495;51.210;2.934;2022-12-18T14:04:22;45.73;;;30.80;;
18732;SDS011;9495;51.210;2.934;2022-12-18T14:06:55;49.57;;;28.93;;
18732;SDS011;9495;51.210;2.934;2022-12-18T14:09:29;39.10;;;23.13;;
18732;SDS011;9495;51.210;2.934;2022-12-18T14:12:02;46.37;;;31.33;;
18732;SDS011;9495;51.210;2.934;2022-12-18T14:14:50;50.27;;;28.23;;
18732;SDS011;9495;51.210;2.934;2022-12-18T14:17:22;45.80;;;28.20;;
18732;SDS011;9495;51.210;2.934;2022-12-18T14:19:51;50.10;;;29.53;;
18732;SDS011;9495;51.210;2.934;2022-12-18T14:22:20;48.97;;;28.50;;
18732;SDS011;9495;51.210;2.934;2022-12-18T14:25:05;41.73;;;23.10;;
18732;SDS011;9495;51.210;2.934;2022-12-18T14:27:42;48.50;;;27.80;;
18732;SDS011;9495;51.210;2.934;2022-12-18T14:30:27;42.63;;;23.40;;
18732;SDS011;9495;51.210;2.934;2022-12-18T14:33:03;54.17;;;31.93;;
18732;SDS011;9495;51.210;2.934;2022-12-18T14:35:32;50.63;;;27.77;;
18732;SDS011;9495;51.210;2.934;2022-12-18T14:38:18;53.73;;;32.17;;
18732;SDS011;9495;51.210;2.934;2022-12-18T14:40:51;53.67;;;32.57;;
18732;SDS011;9495;51.210;2.934;2022-12-18T14:43:21;51.83;;;29.50;;
18732;SDS011;9495;51.210;2.934;2022-12-18T14:45:49;50.57;;;30.53;;
18732;SDS011;9495;51.210;2.934;2022-12-18T14:48:21;55.07;;;33.27;;
18732;SDS011;9495;51.210;2.934;2022-12-18T14:50:57;51.17;;;29.03;;
18732;SDS011;9495;51.210;2.934;2022-12-18T14:53:30;51.87;;;30.00;;
18732;SDS011;9495;51.210;2.934;2022-12-18T14:56:02;47.40;;;29.27;;
18732;SDS011;9495;51.210;2.934;2022-12-18T14:58:31;52.57;;;30.87;;
18732;SDS011;9495;51.210;2.934;2022-12-18T15:00:59;52.03;;;30.53;;
18732;SDS011;9495;51.210;2.934;2022-12-18T15:03:29;53.63;;;29.47;;
18732;SDS011;9495;51.210;2.934;2022-12-18T15:06:00;51.43;;;31.97;;
18732;SDS011;9495;51.210;2.934;2022-12-18T15:08:43;52.27;;;31.70;;
18732;SDS011;9495;51.210;2.934;2022-12-18T15:11:28;54.23;;;31.50;;
18732;SDS011;9495;51.210;2.934;2022-12-18T15:16:51;47.60;;;27.70;;
18732;SDS011;9495;51.210;2.934;2022-12-18T15:19:24;48.97;;;30.03;;
18732;SDS011;9495;51.210;2.934;2022-12-18T15:22:01;55.73;;;30.20;;